Time;durP1;ratioP1;P1;durP2;ratioP2;P2;SDS_P1;SDS_P2;PMS_P1;PMS_P2;Temp;Humidity;BMP_temperature;BMP_pressure;BME280_temperature;BME280_humidity;BME280_pressure;Samples;Min_cycle;Max_cycle;Signal;HPM_P1;HPM_P2
2022/12/08 00:01:56;;;;;;;8.70;1.40;;;;;;;;;;5092210;28;20088;-83
2022/12/08 00:10:47;;;;;;;11.03;1.40;;;;;;;;;;5082120;28;20043;-83
2022/12/08 00:13:32;;;;;;;5.60;1.50;;;;;;;;;;5077282;28;20097;-83
2022/12/08 00:16:16;;;;;;;7.27;1.40;;;;;;;;;;5092610;28;20039;-83
2022/12/08 00:19:01;;;;;;;5.50;1.40;;;;;;;;;;5092065;28;20047;-83
2022/12/08 00:21:46;;;;;;;6.33;1.30;;;;;;;;;;5091895;28;20406;-83
2022/12/08 00:24:33;;;;;;;5.33;1.47;;;2.60;99.90;;;;;;5096112;28;20078;-83
2022/12/08 00:27:18;;;;;;;8.07;2.07;;;;;;;;;;5096286;28;20487;-83
2022/12/08 00:30:02;;;;;;;5.93;1.53;;;;;;;;;;5096082;28;20134;-83
2022/12/08 00:32:47;;;;;;;10.77;1.67;;;;;;;;;;5096039;28;20088;-83
2022/12/08 00:35:31;;;;;;;7.63;1.33;;;;;;;;;;5080830;28;20149;-83
2022/12/08 00:38:16;;;;;;;8.27;1.80;;;;;;;;;;5096393;28;20402;-82
2022/12/08 00:41:00;;;;;;;8.87;1.47;;;;;;;;;;5066398;28;20089;-83
2022/12/08 00:43:45;;;;;;;4.13;1.30;;;;;;;;;;5095907;28;20499;-82
2022/12/08 00:46:29;;;;;;;7.07;1.30;;;;;;;;;;5081815;28;20592;-83
2022/12/08 00:49:14;;;;;;;5.50;1.43;;;2.70;99.90;;;;;;5080500;28;20046;-83
2022/12/08 00:51:59;;;;;;;4.27;1.83;;;;;;;;;;5095691;28;20043;-83
2022/12/08 00:54:44;;;;;;;8.77;1.60;;;;;;;;;;5080645;28;20479;-83
2022/12/08 00:57:28;;;;;;;16.97;2.30;;;;;;;;;;5080539;28;20545;-83
2022/12/08 01:00:13;;;;;;;7.70;1.50;;;2.90;99.90;;;;;;5080537;28;20097;-83
2022/12/08 01:02:57;;;;;;;8.73;1.63;;;;;;;;;;5079896;28;20564;-83
2022/12/08 01:05:42;;;;;;;6.87;1.80;;;;;;;;;;5066287;28;20081;-83
2022/12/08 01:08:26;;;;;;;10.00;1.40;;;;;;;;;;5080138;28;20089;-84
2022/12/08 01:11:13;;;;;;;6.77;1.93;;;2.80;99.90;;;;;;5095274;28;20499;-84
2022/12/08 01:13:58;;;;;;;3.03;1.40;;;;;;;;;;5083201;28;20043;-84
2022/12/08 01:16:42;;;;;;;4.13;1.13;;;2.70;99.90;;;;;;5095407;28;20082;-84
2022/12/08 01:19:27;;;;;;;4.87;2.40;;;;;;;;;;5095603;28;20046;-84
2022/12/08 01:22:11;;;;;;;5.17;1.50;;;;;;;;;;5094940;28;20046;-84
2022/12/08 01:24:56;;;;;;;14.20;1.33;;;;;;;;;;5094881;28;20043;-84
2022/12/08 01:27:41;;;;;;;5.30;1.07;;;;;;;;;;5080356;28;20040;-84
2022/12/08 01:30:26;;;;;;;3.60;1.20;;;;;;;;;;5095433;28;20404;-84
2022/12/08 01:33:10;;;;;;;7.90;2.07;;;;;;;;;;5065457;28;20227;-84
2022/12/08 01:35:55;;;;;;;6.17;1.40;;;;;;;;;;5094051;28;20035;-83
2022/12/08 01:38:39;;;;;;;8.27;1.70;;;;;;;;;;5094887;28;20445;-84
2022/12/08 01:41:28;;;;;;;6.23;1.50;;;2.40;99.90;;;;;;5095067;28;20067;-84
2022/12/08 01:44:13;;;;;;;9.57;1.60;;;;;;;;;;5094348;28;20059;-84
2022/12/08 01:46:57;;;;;;;3.03;1.50;;;;;;;;;;5094592;28;20523;-84
2022/12/08 01:49:42;;;;;;;5.57;1.60;;;;;;;;;;5094657;28;20039;-84
2022/12/08 01:52:34;;;;;;;6.17;1.30;;;2.50;99.90;;;;;;5094849;28;20089;-84
2022/12/08 01:55:27;;;;;;;4.37;1.30;;;2.50;99.90;;;;;;5079756;28;20491;-84
2022/12/08 01:58:33;;;;;;;6.27;2.40;;;2.50;99.90;;;;;;5094198;28;20100;-84
2022/12/08 02:01:18;;;;;;;3.83;1.53;;;;;;;;;;5078826;28;20043;-84
2022/12/08 02:04:04;;;;;;;2.57;1.30;;;;;;;;;;5094311;28;20039;-84
2022/12/08 02:06:49;;;;;;;6.70;1.40;;;2.50;99.90;;;;;;5094485;28;20487;-84
2022/12/08 02:09:35;;;;;;;5.93;1.50;;;2.50;99.90;;;;;;5094501;28;20606;-84
2022/12/08 02:12:20;;;;;;;7.83;1.50;;;;;;;;;;5078758;28;20093;-84
2022/12/08 02:15:05;;;;;;;8.23;1.83;;;2.50;99.90;;;;;;5093892;28;20408;-84
2022/12/08 02:18:09;;;;;;;4.73;1.10;;;2.60;99.90;;;;;;5094351;28;20047;-84
2022/12/08 02:20:59;;;;;;;5.68;1.13;;;2.70;99.90;;;;;;5094402;28;20095;-84
2022/12/08 02:23:43;;;;;;;4.40;1.00;;;;;;;;;;5078784;28;20039;-84
2022/12/08 02:26:28;;;;;;;4.37;1.17;;;;;;;;;;5094354;28;20089;-84
2022/12/08 02:29:33;;;;;;;4.07;1.37;;;2.60;99.90;;;;;;5072174;28;20634;-84
2022/12/08 02:32:57;;;;;;;3.23;1.27;;;2.60;99.90;;;;;;5073376;28;20432;-84
2022/12/08 02:36:02;;;;;;;4.53;1.33;;;2.60;99.90;;;;;;5073600;28;20491;-84
2022/12/08 02:39:15;;;;;;;5.87;1.00;;;2.70;99.90;;;;;;5073593;28;20403;-84
2022/12/08 02:42:25;;;;;;;2.83;1.00;;;2.50;99.90;;;;;;5072202;28;20043;-84
2022/12/08 02:45:10;;;;;;;7.83;0.83;;;;;;;;;;5072186;28;20463;-84
2022/12/08 02:47:54;;;;;;;6.97;1.10;;;;;;;;;;5072395;28;20051;-84
2022/12/08 02:50:39;;;;;;;7.13;1.10;;;;;;;;;;5073450;28;20051;-84
2022/12/08 02:53:24;;;;;;;4.03;0.90;;;;;;;;;;5052095;28;20040;-84
2022/12/08 02:56:08;;;;;;;3.73;0.93;;;;;;;;;;5068274;28;20439;-84
2022/12/08 02:59:15;;;;;;;3.20;1.10;;;2.50;99.90;;;;;;5073307;28;20039;-84
2022/12/08 03:02:03;;;;;;;3.13;0.90;;;;;;;;;;5073329;28;20042;-84
2022/12/08 03:05:14;;;;;;;4.03;1.20;;;3.00;99.90;;;;;;5073094;28;20059;-84
2022/12/08 03:08:40;;;;;;;3.73;1.17;;;2.50;99.90;;;;;;5072975;28;20116;-84
2022/12/08 03:11:35;;;;;;;3.90;1.00;;;2.60;99.90;;;;;;5071586;28;20056;-84
2022/12/08 03:14:21;;;;;;;4.00;1.10;;;2.50;99.90;;;;;;5072697;28;20039;-84
2022/12/08 03:17:06;;;;;;;7.23;1.10;;;;;;;;;;5072564;28;20036;-84
2022/12/08 03:19:52;;;;;;;5.63;2.40;;;2.60;99.90;;;;;;5071795;28;20048;-84
2022/12/08 03:22:39;;;;;;;4.77;0.97;;;1.30;99.90;;;;;;5071880;28;20119;-84
2022/12/08 03:25:26;;;;;;;5.10;0.97;;;2.60;99.90;;;;;;5069789;28;20062;-84
2022/12/08 03:28:11;;;;;;;4.20;1.00;;;;;;;;;;5072297;28;20035;-83
2022/12/08 03:31:00;;;;;;;3.53;0.90;;;2.50;99.90;;;;;;5052930;28;20174;-84
2022/12/08 03:33:50;;;;;;;3.73;1.00;;;2.50;99.90;;;;;;5051693;28;20121;-84
2022/12/08 03:36:34;;;;;;;3.17;0.80;;;;;;;;;;5052887;28;20100;-84
2022/12/08 03:39:19;;;;;;;2.47;0.80;;;;;;;;;;5051040;28;20044;-84
2022/12/08 03:42:03;;;;;;;2.47;0.70;;;;;;;;;;5052471;28;20043;-84
2022/12/08 03:44:48;;;;;;;2.77;1.20;;;;;;;;;;5052470;28;20047;-84
2022/12/08 03:47:33;;;;;;;2.50;0.70;;;;;;;;;;5052158;28;20040;-84
2022/12/08 03:50:17;;;;;;;2.73;1.20;;;;;;;;;;5052147;28;20178;-84
2022/12/08 03:53:02;;;;;;;3.73;0.70;;;;;;;;;;5052401;28;20036;-84
2022/12/08 03:55:47;;;;;;;2.53;0.70;;;;;;;;;;5031598;28;20044;-84
2022/12/08 03:58:31;;;;;;;2.07;0.70;;;;;;;;;;5050565;28;20040;-84
2022/12/08 04:01:16;;;;;;;3.67;0.70;;;;;;;;;;5051954;28;20094;-84
2022/12/08 04:04:00;;;;;;;0.97;0.60;;;;;;;;;;5051525;28;20039;-84
2022/12/08 04:06:46;;;;;;;1.07;0.60;;;;;;;;;;5051239;28;20056;-84
2022/12/08 04:09:30;;;;;;;2.70;0.80;;;;;;;;;;5050835;28;20440;-84
2022/12/08 04:12:15;;;;;;;2.40;0.70;;;;;;;;;;5052021;28;20040;-84
2022/12/08 04:14:59;;;;;;;3.07;0.70;;;;;;;;;;5052118;28;20091;-84
2022/12/08 04:17:43;;;;;;;3.60;0.80;;;;;;;;;;5051241;28;20413;-84
2022/12/08 04:20:28;;;;;;;1.80;0.90;;;;;;;;;;5050657;28;20466;-84
2022/12/08 04:23:13;;;;;;;2.70;0.93;;;;;;;;;;5031391;28;20099;-84
2022/12/08 04:25:57;;;;;;;6.57;0.97;;;;;;;;;;5037174;28;20132;-84
2022/12/08 04:28:42;;;;;;;3.77;0.97;;;;;;;;;;5038701;28;20159;-84
2022/12/08 04:31:27;;;;;;;1.50;0.80;;;;;;;;;;5071799;28;20162;-84
2022/12/08 04:34:11;;;;;;;2.73;1.60;;;;;;;;;;5071868;28;20142;-84
2022/12/08 04:36:56;;;;;;;4.97;0.80;;;;;;;;;;5085444;28;20123;-84
2022/12/08 04:39:40;;;;;;;2.77;0.80;;;;;;;;;;5072593;28;20580;-84
2022/12/08 04:42:24;;;;;;;2.87;0.83;;;;;;;;;;5099046;28;20047;-84
2022/12/08 04:45:09;;;;;;;2.50;0.80;;;2.00;99.90;;;;;;5072169;28;20090;-84
2022/12/08 04:47:53;;;;;;;2.27;0.77;;;;;;;;;;5071977;28;20102;-84
2022/12/08 04:50:40;;;;;;;1.27;0.70;;;2.00;99.90;;;;;;5071580;28;20048;-84
2022/12/08 04:53:25;;;;;;;4.17;0.83;;;;;;;;;;5071520;28;20116;-84
2022/12/08 04:56:14;;;;;;;1.50;0.70;;;1.90;99.90;;;;;;5071766;28;20086;-84
2022/12/08 04:58:59;;;;;;;4.17;0.90;;;;;;;;;;5085287;28;20052;-84
2022/12/08 05:01:43;;;;;;;3.07;0.80;;;;;;;;;;5099478;28;20429;-84
2022/12/08 05:04:28;;;;;;;1.80;0.90;;;;;;;;;;5070412;28;20098;-84
2022/12/08 05:07:12;;;;;;;1.80;0.60;;;;;;;;;;5070894;28;20036;-84
2022/12/08 05:09:57;;;;;;;2.00;0.80;;;;;;;;;;5072549;28;20047;-84
2022/12/08 05:12:41;;;;;;;4.23;1.30;;;;;;;;;;5102596;28;20040;-84
2022/12/08 05:15:25;;;;;;;1.17;0.67;;;;;;;;;;5102639;28;20074;-84
2022/12/08 05:18:10;;;;;;;1.63;0.90;;;;;;;;;;5102831;28;20539;-84
2022/12/08 05:20:54;;;;;;;3.20;0.80;;;;;;;;;;5075271;28;20500;-84
2022/12/08 05:23:39;;;;;;;3.27;1.40;;;;;;;;;;5074599;28;20063;-84
2022/12/08 05:26:24;;;;;;;2.67;1.00;;;;;;;;;;5074696;28;20043;-84
2022/12/08 05:29:08;;;;;;;1.77;0.83;;;;;;;;;;5075186;28;20103;-84
2022/12/08 05:31:53;;;;;;;6.63;1.57;;;;;;;;;;5108600;28;20035;-84
2022/12/08 05:34:37;;;;;;;2.63;0.80;;;;;;;;;;5108234;28;20120;-84
2022/12/08 05:37:22;;;;;;;4.73;0.80;;;;;;;;;;5108427;28;20081;-84
2022/12/08 05:40:06;;;;;;;2.93;1.00;;;2.20;99.90;;;;;;5094162;28;20124;-84
2022/12/08 05:42:52;;;;;;;3.40;1.00;;;;;;;;;;5094955;28;20494;-84
2022/12/08 05:45:36;;;;;;;3.17;1.10;;;;;;;;;;5107887;28;20047;-85
2022/12/08 05:48:20;;;;;;;1.50;0.80;;;;;;;;;;5108244;28;20089;-85
2022/12/08 05:51:11;;;;;;;3.77;0.90;;;2.10;99.90;;;;;;5108328;28;20035;-85
2022/12/08 05:53:56;;;;;;;5.20;1.10;;;2.10;99.90;;;;;;5108348;28;20035;-84
2022/12/08 05:56:40;;;;;;;1.60;0.87;;;;;;;;;;5107908;28;20066;-85
2022/12/08 05:59:24;;;;;;;1.97;1.10;;;;;;;;;;5108148;28;20093;-84
2022/12/08 06:02:09;;;;;;;4.50;0.90;;;;;;;;;;5093601;28;20043;-85
2022/12/08 06:04:53;;;;;;;4.40;0.80;;;;;;;;;;5107995;28;20555;-85
2022/12/08 06:07:38;;;;;;;1.87;1.10;;;;;;;;;;5094137;28;20120;-85
2022/12/08 06:10:23;;;;;;;3.40;1.00;;;;;;;;;;5094571;28;20054;-84
2022/12/08 06:13:07;;;;;;;2.90;1.03;;;2.10;99.90;;;;;;5107794;28;20042;-84
2022/12/08 06:15:51;;;;;;;7.87;1.10;;;;;;;;;;5094065;28;20166;-85
2022/12/08 06:18:36;;;;;;;2.27;1.00;;;;;;;;;;5093977;28;20043;-84
2022/12/08 06:21:21;;;;;;;3.93;1.37;;;;;;;;;;5094004;28;20038;-84
2022/12/08 06:24:05;;;;;;;4.27;1.40;;;;;;;;;;5107864;28;20085;-84
2022/12/08 06:26:50;;;;;;;4.33;1.30;;;;;;;;;;5107176;28;20119;-84
2022/12/08 06:29:34;;;;;;;5.50;1.03;;;;;;;;;;5102731;28;20167;-84
2022/12/08 06:32:19;;;;;;;7.57;1.33;;;;;;;;;;5094041;28;20549;-84
2022/12/08 06:35:03;;;;;;;2.53;1.10;;;2.20;99.90;;;;;;5078787;28;20503;-84
2022/12/08 06:37:50;;;;;;;4.10;1.23;;;;;;;;;;5064098;28;20047;-84
2022/12/08 06:40:35;;;;;;;5.27;1.40;;;;;;;;;;5078111;28;20092;-84
2022/12/08 06:43:19;;;;;;;3.40;1.40;;;;;;;;;;5092915;28;20089;-84
2022/12/08 06:46:09;;;;;;;3.43;1.50;;;2.10;99.90;;;;;;5093772;28;20050;-84
2022/12/08 06:48:54;;;;;;;6.13;1.80;;;;;;;;;;5093377;28;20082;-84
2022/12/08 06:51:38;;;;;;;4.37;1.60;;;;;;;;;;5093362;28;20081;-84
2022/12/08 06:54:23;;;;;;;5.30;1.73;;;;;;;;;;5093687;28;20166;-85
2022/12/08 06:57:07;;;;;;;6.27;1.80;;;;;;;;;;5107252;28;20055;-84
2022/12/08 06:59:52;;;;;;;4.90;1.83;;;;;;;;;;5093030;28;20104;-84
2022/12/08 07:02:36;;;;;;;7.13;1.87;;;;;;;;;;5092997;28;20073;-84
2022/12/08 07:05:21;;;;;;;4.23;1.80;;;;;;;;;;5093615;28;20075;-84
2022/12/08 07:08:07;;;;;;;9.23;1.97;;;2.30;99.90;;;;;;5106791;28;20085;-84
2022/12/08 07:10:52;;;;;;;4.37;1.80;;;;;;;;;;5092908;28;20415;-84
2022/12/08 07:13:36;;;;;;;5.23;1.93;;;;;;;;;;5092913;28;20412;-84
2022/12/08 07:16:21;;;;;;;6.00;1.90;;;;;;;;;;5093047;28;20088;-84
2022/12/08 07:19:06;;;;;;;6.17;2.00;;;;;;;;;;5106810;28;20054;-84
2022/12/08 07:21:50;;;;;;;4.00;2.13;;;;;;;;;;5092517;28;20096;-84
2022/12/08 07:24:35;;;;;;;9.70;2.17;;;;;;;;;;5093149;28;20085;-84
2022/12/08 07:27:19;;;;;;;6.50;2.57;;;;;;;;;;5094264;28;20039;-84
2022/12/08 07:30:04;;;;;;;6.27;2.00;;;2.30;99.90;;;;;;5092854;28;20074;-84
2022/12/08 07:32:48;;;;;;;9.70;2.00;;;2.40;99.90;;;;;;5091896;28;20046;-84
2022/12/08 07:35:33;;;;;;;4.50;1.90;;;;;;;;;;5092899;28;20453;-84
2022/12/08 07:38:17;;;;;;;5.30;2.33;;;;;;;;;;5092990;28;20058;-84
2022/12/08 07:41:02;;;;;;;8.23;2.00;;;;;;;;;;5092358;28;20537;-84
2022/12/08 07:43:47;;;;;;;7.80;2.30;;;;;;;;;;5092479;28;20144;-84
2022/12/08 07:46:31;;;;;;;5.73;2.63;;;;;;;;;;5092747;28;20034;-84
2022/12/08 07:49:16;;;;;;;7.60;2.30;;;;;;;;;;5092452;28;20054;-84
2022/12/08 07:52:01;;;;;;;6.90;2.20;;;;;;;;;;5092352;28;20447;-84
2022/12/08 07:54:45;;;;;;;3.10;1.83;;;;;;;;;;5092227;28;20035;-84
2022/12/08 07:57:30;;;;;;;6.93;2.00;;;;;;;;;;5092502;28;20050;-84
2022/12/08 08:00:14;;;;;;;6.47;2.07;;;2.40;99.90;;;;;;5106109;28;20456;-84
2022/12/08 08:02:59;;;;;;;6.67;1.90;;;;;;;;;;5105451;28;20434;-84
2022/12/08 08:05:44;;;;;;;4.00;1.73;;;;;;;;;;5092098;28;20082;-83
2022/12/08 08:08:28;;;;;;;5.40;2.00;;;;;;;;;;5106037;28;20039;-84
2022/12/08 08:11:13;;;;;;;9.13;2.17;;;;;;;;;;5092428;28;20051;-84
2022/12/08 08:13:57;;;;;;;6.77;1.80;;;;;;;;;;5105470;28;20116;-84
2022/12/08 08:16:45;;;;;;;3.10;1.93;;;;;;;;;;5092263;28;20035;-84
2022/12/08 08:19:30;;;;;;;4.93;2.00;;;;;;;;;;5092238;28;20404;-84
2022/12/08 08:22:14;;;;;;;9.80;2.10;;;;;;;;;;5093644;28;20039;-83
2022/12/08 08:24:59;;;;;;;4.87;2.00;;;;;;;;;;5105166;28;20040;-84
2022/12/08 08:27:44;;;;;;;5.97;1.93;;;1.80;99.90;;;;;;5105675;28;20039;-84
2022/12/08 08:30:29;;;;;;;11.63;3.87;;;;;;;;;;5089299;28;20515;-84
2022/12/08 08:33:13;;;;;;;17.13;3.60;;;;;;;;;;5092175;28;20093;-84
2022/12/08 08:35:58;;;;;;;7.73;2.93;;;;;;;;;;5076654;28;20046;-84
2022/12/08 08:38:43;;;;;;;5.13;2.17;;;;;;;;;;5105673;28;20169;-84
2022/12/08 08:41:28;;;;;;;9.97;3.00;;;;;;;;;;5105848;28;20039;-84
2022/12/08 08:44:13;;;;;;;4.17;2.40;;;1.80;99.90;;;;;;5093389;28;20039;-84
2022/12/08 08:46:58;;;;;;;9.63;2.80;;;;;;;;;;5095745;28;20089;-84
2022/12/08 08:49:42;;;;;;;10.00;2.63;;;;;;;;;;5109560;28;20078;-84
2022/12/08 08:52:27;;;;;;;7.97;2.40;;;;;;;;;;5095804;28;20101;-84
2022/12/08 08:55:12;;;;;;;5.63;2.47;;;;;;;;;;5109127;28;20058;-84
2022/12/08 08:57:56;;;;;;;9.50;3.23;;;;;;;;;;5095478;28;20561;-84
2022/12/08 09:00:41;;;;;;;10.40;2.50;;;;;;;;;;5095865;28;20047;-84
2022/12/08 09:03:26;;;;;;;10.97;2.80;;;;;;;;;;5095848;28;20035;-84
2022/12/08 09:06:11;;;;;;;8.60;2.50;;;;;;;;;;5095236;28;20135;-84
2022/12/08 09:08:56;;;;;;;10.17;2.53;;;;;;;;;;5094132;28;20388;-84
2022/12/08 09:11:40;;;;;;;5.17;2.40;;;;;;;;;;5095510;28;20090;-84
2022/12/08 09:14:25;;;;;;;7.47;2.60;;;;;;;;;;5095596;28;20038;-84
2022/12/08 09:17:10;;;;;;;5.47;3.00;;;;;;;;;;5095239;28;20043;-84
2022/12/08 09:19:54;;;;;;;7.30;3.00;;;;;;;;;;5093983;28;20055;-84
2022/12/08 09:22:39;;;;;;;11.77;3.07;;;;;;;;;;5108963;28;20495;-84
2022/12/08 09:25:23;;;;;;;6.97;2.80;;;;;;;;;;5108732;28;20082;-84
2022/12/08 09:28:08;;;;;;;9.37;2.50;;;;;;;;;;5094944;28;20116;-83
2022/12/08 09:30:52;;;;;;;6.33;2.70;;;;;;;;;;5108634;28;20090;-83
2022/12/08 09:33:37;;;;;;;6.80;2.30;;;;;;;;;;5095237;28;20442;-84
2022/12/08 09:36:21;;;;;;;5.57;2.43;;;;;;;;;;5095324;28;20125;-83
2022/12/08 09:39:06;;;;;;;6.37;3.00;;;;;;;;;;5094735;28;20059;-84
2022/12/08 09:41:58;;;;;;;8.20;4.20;;;1.80;99.90;;;;;;5095148;28;20039;-84
2022/12/08 09:45:10;;;;;;;10.57;3.60;;;1.80;99.90;;;;;;5079740;28;20055;-84
2022/12/08 09:48:03;;;;;;;8.40;3.20;;;1.80;99.90;;;;;;5094798;28;20100;-84
2022/12/08 09:50:55;;;;;;;6.15;2.45;;;1.90;99.90;;;;;;5094835;28;20527;-84
2022/12/08 09:54:10;;;;;;;5.00;2.20;;;2.00;99.90;;;;;;5094848;28;20044;-84
2022/12/08 09:57:00;;;;;;;4.90;2.63;;;2.00;99.90;;;;;;5081999;28;20047;-84
2022/12/08 09:59:53;;;;;;;6.07;2.13;;;2.10;99.90;;;;;;5094647;28;20039;-84
2022/12/08 10:02:38;;;;;;;7.55;2.53;;;;;;;;;;5094529;28;20047;-83
2022/12/08 10:05:25;;;;;;;5.60;2.40;;;2.30;99.90;;;;;;5108073;28;20511;-84
2022/12/08 10:08:18;;;;;;;6.37;2.70;;;2.30;99.90;;;;;;5078820;28;20089;-84
2022/12/08 10:11:13;;;;;;;10.85;2.80;;;2.50;99.90;;;;;;5078972;28;20081;-83
2022/12/08 10:14:31;;;;;;;7.07;2.00;;;2.50;99.90;;;;;;5094452;28;20050;-84
2022/12/08 10:17:16;;;;;;;9.00;2.50;;;;;;;;;;5082946;28;20067;-84
2022/12/08 10:20:11;;;;;;;8.17;2.33;;;2.70;99.90;;;;;;5093824;28;20093;-84
2022/12/08 10:23:11;;;;;;;7.10;2.30;;;2.80;99.90;;;;;;5094281;28;20071;-83
2022/12/08 10:26:13;;;;;;;5.37;2.03;;;2.80;99.90;;;;;;5094171;28;20182;-84
2022/12/08 10:29:01;;;;;;;6.50;2.30;;;3.00;99.90;;;;;;5078805;28;20059;-83
2022/12/08 10:31:46;;;;;;;5.37;2.23;;;;;;;;;;5107501;28;20070;-84
2022/12/08 10:34:30;;;;;;;3.27;1.83;;;;;;;;;;5107680;28;20423;-84
2022/12/08 10:37:14;;;;;;;3.23;1.90;;;;;;;;;;5093553;28;20062;-84
2022/12/08 10:40:28;;;;;;;7.73;2.13;;;3.10;99.90;;;;;;5107417;28;20089;-84
2022/12/08 10:43:22;;;;;;;7.23;1.90;;;3.80;99.90;;;;;;5093506;28;20047;-84
2022/12/08 10:46:13;;;;;;;7.95;3.00;;;3.10;99.90;;;;;;5077964;28;20521;-84
2022/12/08 10:49:03;;;;;;;4.80;2.10;;;2.80;99.90;;;;;;5093726;28;20130;-84
2022/12/08 10:51:48;;;;;;;4.80;2.20;;;;;;;;;;5067943;28;20043;-83
2022/12/08 10:54:37;;;;;;;5.63;2.10;;;3.20;99.90;;;;;;5078246;28;20031;-84
2022/12/08 10:57:24;;;;;;;5.33;1.90;;;3.20;99.90;;;;;;5093192;28;20031;-83
2022/12/08 11:00:15;;;;;;;9.13;2.10;;;3.20;99.90;;;;;;5106433;28;20105;-84
2022/12/08 11:03:01;;;;;;;3.40;1.70;;;3.20;99.90;;;;;;5093475;28;20436;-83
2022/12/08 11:05:46;;;;;;;7.63;2.10;;;;;;;;;;5093403;28;20499;-83
2022/12/08 11:08:31;;;;;;;8.03;3.27;;;;;;;;;;5091017;28;20039;-83
2022/12/08 11:11:15;;;;;;;7.57;2.17;;;;;;;;;;5106113;28;20043;-83
2022/12/08 11:14:06;;;;;;;9.40;2.43;;;3.30;99.90;;;;;;5093409;28;20039;-83
2022/12/08 11:16:53;;;;;;;16.17;3.57;;;3.30;99.90;;;;;;5093167;28;20495;-83
2022/12/08 11:19:39;;;;;;;5.90;2.43;;;3.40;99.90;;;;;;5093165;28;20209;-83
2022/12/08 11:22:36;;;;;;;4.73;2.20;;;3.70;99.90;;;;;;5092751;28;20035;-84
2022/12/08 11:25:21;;;;;;;3.47;1.67;;;;;;;;;;5092530;28;20526;-84
2022/12/08 11:28:09;;;;;;;4.57;2.23;;;3.50;99.90;;;;;;5106360;28;20463;-83
2022/12/08 11:30:59;;;;;;;5.73;1.30;;;3.50;99.90;;;;;;5092971;28;20469;-83
2022/12/08 11:33:44;;;;;;;8.07;1.50;;;;;;;;;;5077392;28;20031;-83
2022/12/08 11:36:32;;;;;;;5.40;1.50;;;3.60;99.90;;;;;;5092626;28;20040;-83
2022/12/08 11:39:17;;;;;;;7.40;1.87;;;;;;;;;;5105829;28;20035;-83
2022/12/08 11:42:06;;;;;;;5.60;1.70;;;3.60;99.90;;;;;;5106329;28;20035;-83
2022/12/08 11:44:57;;;;;;;7.13;1.80;;;3.60;99.90;;;;;;5105738;28;20065;-83
2022/12/08 11:47:48;;;;;;;6.00;1.60;;;3.60;99.90;;;;;;5077438;28;20027;-83
2022/12/08 11:50:42;;;;;;;5.83;1.70;;;6.20;99.90;;;;;;5077064;28;20475;-83
2022/12/08 11:53:42;;;;;;;7.00;2.13;;;3.50;99.90;;;;;;5077095;28;20039;-83
2022/12/08 11:56:34;;;;;;;4.60;1.70;;;3.50;99.90;;;;;;5091780;28;20479;-84
2022/12/08 11:59:28;;;;;;;5.90;1.97;;;3.40;99.90;;;;;;5091620;28;20456;-84
2022/12/08 12:02:22;;;;;;;8.82;2.05;;;3.50;99.90;;;;;;5092623;28;20035;-83
2022/12/08 12:05:21;;;;;;;6.30;2.67;;;3.50;99.90;;;;;;5092640;28;20255;-83
2022/12/08 12:08:42;;;;;;;5.50;1.70;;;3.60;99.90;;;;;;5092473;28;20054;-83
2022/12/08 12:14:52;;;;;;;2.33;1.40;;;3.60;99.90;;;;;;5092051;28;20074;-84
2022/12/08 12:17:37;;;;;;;5.43;1.80;;;;;;;;;;5092152;28;20312;-83
2022/12/08 12:20:30;;;;;;;8.47;2.00;;;3.50;99.90;;;;;;5095539;28;20053;-83
2022/12/08 12:23:47;;;;;;;5.10;2.50;;;3.60;99.90;;;;;;5096470;28;20031;-83
2022/12/08 12:26:36;;;;;;;6.97;2.60;;;3.60;99.90;;;;;;5109514;28;20055;-83
2022/12/08 12:29:23;;;;;;;5.77;3.00;;;3.60;99.90;;;;;;5095978;28;20070;-84
2022/12/08 12:32:09;;;;;;;4.70;2.40;;;;;;;;;;5096673;28;20109;-83
2022/12/08 12:34:59;;;;;;;12.67;3.00;;;3.70;99.90;;;;;;5096422;28;20109;-84
2022/12/08 12:37:43;;;;;;;11.50;2.73;;;;;;;;;;5096503;28;20494;-83
2022/12/08 12:40:38;;;;;;;12.23;3.50;;;3.80;99.90;;;;;;5095844;28;20096;-83
2022/12/08 12:43:32;;;;;;;3.40;1.50;;;3.90;99.90;;;;;;5096079;28;20070;-83
2022/12/08 12:46:22;;;;;;;;;;;4.40;99.90;;;;;;5081316;28;20031;-83
2022/12/08 12:49:38;;;;;;;4.23;1.30;;;3.60;99.90;;;;;;5080784;28;20287;-84
2022/12/08 12:52:22;;;;;;;9.17;1.23;;;;;;;;;;5095550;28;20125;-84
2022/12/08 12:55:09;;;;;;;4.20;1.43;;;3.30;99.90;;;;;;5109630;28;20100;-84
2022/12/08 12:57:57;;;;;;;9.30;1.47;;;3.30;99.90;;;;;;5109246;28;20093;-84
2022/12/08 13:00:41;;;;;;;7.03;1.50;;;;;;;;;;5095454;28;20618;-84
2022/12/08 13:03:26;;;;;;;5.73;1.70;;;;;;;;;;5108907;28;20046;-84
2022/12/08 13:06:12;;;;;;;5.07;1.30;;;3.40;99.90;;;;;;5095731;28;20086;-84
2022/12/08 13:08:58;;;;;;;3.20;1.20;;;3.50;99.90;;;;;;5095674;28;20089;-84
2022/12/08 13:11:50;;;;;;;5.83;1.70;;;3.60;99.90;;;;;;5095112;28;20107;-84
2022/12/08 13:14:49;;;;;;;5.90;1.30;;;4.00;99.90;;;;;;5095188;28;20396;-84
2022/12/08 13:17:37;;;;;;;2.80;1.07;;;3.60;99.90;;;;;;5095269;28;20125;-84
2022/12/08 13:20:24;;;;;;;5.93;1.10;;;3.60;99.90;;;;;;5109006;28;20038;-84
2022/12/08 13:23:35;;;;;;;3.93;1.30;;;3.70;99.90;;;;;;5095555;28;20039;-84
2022/12/08 13:26:21;;;;;;;2.90;1.07;;;3.70;99.90;;;;;;5095539;28;20125;-84
2022/12/08 13:29:18;;;;;;;6.23;2.53;;;3.80;99.90;;;;;;5095462;28;20179;-85
2022/12/08 13:32:06;;;;;;;7.87;1.10;;;3.80;99.90;;;;;;5092125;28;20062;-84
2022/12/08 13:34:59;;;;;;;7.40;1.47;;;3.90;99.90;;;;;;5079713;28;20085;-84
2022/12/08 13:37:48;;;;;;;9.90;1.63;;;3.90;99.90;;;;;;5079346;28;20133;-85
2022/12/08 13:40:36;;;;;;;6.17;0.90;;;3.90;99.90;;;;;;5094636;28;20043;-84
2022/12/08 13:43:40;;;;;;;6.60;1.10;;;3.70;99.90;;;;;;5108636;28;20043;-85
2022/12/08 13:46:48;;;;;;;6.28;1.17;;;3.80;99.90;;;;;;5066674;28;20078;-84
2022/12/08 13:49:39;;;;;;;14.73;2.23;;;3.80;99.90;;;;;;5093413;28;20062;-84
2022/12/08 13:52:37;;;;;;;4.10;1.00;;;3.70;99.90;;;;;;5094759;28;20043;-84
2022/12/08 13:55:44;;;;;;;4.63;1.10;;;3.70;99.90;;;;;;5079602;28;20054;-84
2022/12/08 13:58:34;;;;;;;2.23;1.03;;;3.60;99.90;;;;;;5082624;28;20034;-84
2022/12/08 14:01:20;;;;;;;6.50;1.00;;;3.60;99.90;;;;;;5079398;28;20545;-84
2022/12/08 14:04:05;;;;;;;5.43;2.27;;;;;;;;;;5094706;28;20039;-84
2022/12/08 14:06:53;;;;;;;5.97;1.40;;;3.70;99.90;;;;;;5094226;28;20074;-84
2022/12/08 14:09:38;;;;;;;6.03;1.07;;;;;;;;;;5094179;28;20046;-84
2022/12/08 14:12:25;;;;;;;5.20;1.33;;;3.60;99.90;;;;;;5094590;28;20082;-84
2022/12/08 14:15:12;;;;;;;6.73;1.30;;;3.70;99.90;;;;;;5094594;28;20550;-84
2022/12/08 14:17:57;;;;;;;5.70;1.47;;;;;;;;;;5094291;28;20051;-84
2022/12/08 14:20:42;;;;;;;6.03;1.00;;;;;;;;;;5093930;28;20039;-84
2022/12/08 14:23:27;;;;;;;5.23;1.30;;;;;;;;;;5094227;28;20039;-84
2022/12/08 14:26:12;;;;;;;7.93;1.40;;;;;;;;;;5094368;28;20043;-84
2022/12/08 14:28:57;;;;;;;6.47;1.60;;;;;;;;;;5107141;28;20379;-84
2022/12/08 14:31:41;;;;;;;5.70;1.53;;;;;;;;;;5093648;28;20074;-84
2022/12/08 14:34:25;;;;;;;7.20;2.07;;;;;;;;;;5107497;28;20039;-84
2022/12/08 14:37:12;;;;;;;8.73;1.60;;;3.30;99.90;;;;;;5092751;28;20115;-84
2022/12/08 14:40:24;;;;;;;6.80;1.53;;;3.20;99.90;;;;;;5093470;28;20407;-84
2022/12/08 14:43:09;;;;;;;8.20;1.73;;;;;;;;;;5073052;28;20047;-84
2022/12/08 14:45:58;;;;;;;4.20;1.73;;;3.10;99.90;;;;;;5106676;28;20062;-84
2022/12/08 14:48:43;;;;;;;5.03;1.60;;;;;;;;;;5093265;28;20108;-84
2022/12/08 14:51:30;;;;;;;6.80;2.00;;;3.10;99.90;;;;;;5107118;28;20093;-84
2022/12/08 14:54:16;;;;;;;10.27;2.20;;;3.10;99.90;;;;;;5093668;28;20039;-84
2022/12/08 14:57:01;;;;;;;8.43;2.80;;;;;;;;;;5093690;28;20055;-84
2022/12/08 14:59:46;;;;;;;8.70;2.47;;;;;;;;;;5091946;28;20058;-84
2022/12/08 15:02:31;;;;;;;10.67;2.87;;;3.00;99.90;;;;;;5093548;28;20078;-84
2022/12/08 15:05:18;;;;;;;10.93;2.33;;;3.00;99.90;;;;;;5093517;28;20034;-84
2022/12/08 15:08:03;;;;;;;6.80;2.10;;;3.00;99.90;;;;;;5106753;28;20031;-84
2022/12/08 15:11:12;;;;;;;7.97;2.93;;;2.80;99.90;;;;;;5093008;28;20098;-84
2022/12/08 15:13:57;;;;;;;7.47;1.97;;;;;;;;;;5092986;28;20101;-84
2022/12/08 15:16:42;;;;;;;6.83;2.50;;;2.60;99.90;;;;;;5092790;28;20114;-84
2022/12/08 15:19:32;;;;;;;10.30;3.47;;;2.50;99.90;;;;;;5093530;28;20039;-84
2022/12/08 15:22:21;;;;;;;8.57;3.20;;;2.50;99.90;;;;;;5094876;28;20537;-84
2022/12/08 15:25:12;;;;;;;10.93;3.73;;;2.60;99.90;;;;;;5092985;28;20027;-83
2022/12/08 15:27:57;;;;;;;10.97;4.10;;;;;;;;;;5091379;28;20112;-84
2022/12/08 15:30:42;;;;;;;12.87;4.73;;;;;;;;;;5092400;28;20074;-83
2022/12/08 15:33:26;;;;;;;11.30;5.20;;;;;;;;;;5105618;28;20105;-84
2022/12/08 15:36:11;;;;;;;13.13;5.43;;;;;;;;;;5079475;28;20395;-84
2022/12/08 15:38:55;;;;;;;7.13;4.17;;;;;;;;;;5092301;28;20043;-85
2022/12/08 15:41:40;;;;;;;13.40;4.23;;;;;;;;;;5106185;28;20039;-84
2022/12/08 15:44:25;;;;;;;12.17;3.93;;;;;;;;;;5092570;28;20085;-84
2022/12/08 15:47:18;;;;;;;11.27;6.80;;;2.00;99.90;;;;;;5092563;28;20038;-84
2022/12/08 15:50:03;;;;;;;9.37;4.23;;;;;;;;;;5076739;28;20491;-83
2022/12/08 15:52:49;;;;;;;14.10;6.00;;;1.90;99.90;;;;;;5092035;28;20499;-84
2022/12/08 15:55:33;;;;;;;40.17;21.57;;;;;;;;;;5091216;28;20039;-84
2022/12/08 15:58:23;;;;;;;29.57;16.27;;;1.90;99.90;;;;;;5077172;28;20035;-84
2022/12/08 16:01:07;;;;;;;28.07;11.47;;;;;;;;;;5091945;28;20055;-84
2022/12/08 16:03:52;;;;;;;25.43;9.27;;;;;;;;;;5076766;28;20058;-84